createdAt,value
2022-12-08T00:02:12.813Z,99986.63
2022-12-08T00:04:39.969Z,99965.06
2022-12-08T00:07:06.442Z,99982.75
2022-12-08T00:09:41.712Z,99968.94
2022-12-08T00:12:11.363Z,99955.38
2022-12-08T00:14:40.404Z,99946.28
2022-12-08T00:17:08.843Z,99959.78
2022-12-08T00:19:36.532Z,99953.03
2022-12-08T00:22:03.102Z,99985.94
2022-12-08T00:24:31.787Z,99968.31
2022-12-08T00:26:58.459Z,99949.66
2022-12-08T00:29:25.596Z,99950.69
2022-12-08T00:31:52.530Z,99940.75
2022-12-08T00:34:19.683Z,99944.47
2022-12-08T00:36:46.718Z,99955.91
2022-12-08T00:39:15.690Z,99948.25
2022-12-08T00:41:42.457Z,99948.81
2022-12-08T00:44:10.623Z,99959.56
2022-12-08T00:46:37.684Z,99965.84
2022-12-08T00:49:05.420Z,99936.00
2022-12-08T00:51:32.034Z,99967.00
2022-12-08T00:53:58.838Z,99947.22
2022-12-08T00:56:26.368Z,99934.28
2022-12-08T00:58:52.981Z,99937.03
2022-12-08T01:01:19.661Z,99931.81
2022-12-08T01:03:46.341Z,99934.84
2022-12-08T01:06:13.077Z,99938.56
2022-12-08T01:08:40.828Z,99936.22
2022-12-08T01:11:10.828Z,99942.56
2022-12-08T01:13:38.255Z,99922.22
2022-12-08T01:16:05.200Z,99927.59
2022-12-08T01:18:32.142Z,99929.16
2022-12-08T01:21:06.453Z,99920.31
2022-12-08T01:23:33.746Z,99942.34
2022-12-08T01:26:08.242Z,99946.13
2022-12-08T01:28:34.906Z,99940.69
2022-12-08T01:31:02.340Z,99930.00
2022-12-08T01:33:29.078Z,99935.72
2022-12-08T01:35:56.211Z,99933.59
2022-12-08T01:38:22.943Z,99932.09
2022-12-08T01:43:18.510Z,99935.31
2022-12-08T01:45:45.086Z,99934.09
2022-12-08T01:48:18.835Z,99928.03
2022-12-08T01:50:47.935Z,99934.28
2022-12-08T01:53:22.202Z,99920.25
2022-12-08T01:55:58.593Z,99932.84
2022-12-08T01:58:35.894Z,99922.59
2022-12-08T02:01:02.631Z,99928.22
2022-12-08T02:03:34.139Z,99922.25
2022-12-08T02:06:01.430Z,99912.47
2022-12-08T02:08:47.647Z,99913.06
2022-12-08T02:11:14.328Z,99937.03
2022-12-08T02:13:42.911Z,99917.91
2022-12-08T02:16:21.932Z,99918.25
2022-12-08T02:22:02.433Z,99915.84
2022-12-08T02:25:00.731Z,99896.41
2022-12-08T02:27:33.493Z,99916.94
2022-12-08T02:30:18.594Z,99906.13
2022-12-08T02:33:24.842Z,99931.88
2022-12-08T02:35:59.796Z,99901.94
2022-12-08T02:39:11.372Z,99902.88
2022-12-08T02:42:02.260Z,99905.78
2022-12-08T02:44:35.260Z,99888.06
2022-12-08T02:47:13.932Z,99867.81
2022-12-08T02:49:40.531Z,99895.53
2022-12-08T02:52:12.735Z,99883.47
2022-12-08T02:54:50.598Z,99884.22
2022-12-08T02:57:25.795Z,99879.13
2022-12-08T03:00:06.108Z,99887.66
2022-12-08T03:02:55.811Z,99878.38
2022-12-08T03:05:51.792Z,99876.88
2022-12-08T03:08:30.910Z,99898.91
2022-12-08T03:11:17.216Z,99887.06
2022-12-08T03:13:51.646Z,99879.94
2022-12-08T03:16:24.447Z,99875.63
2022-12-08T03:18:56.521Z,99869.63
2022-12-08T03:21:23.196Z,99884.56
2022-12-08T03:23:52.587Z,99874.56
2022-12-08T03:26:26.706Z,99871.63
2022-12-08T03:28:53.338Z,99858.66
2022-12-08T03:31:21.357Z,99875.97
2022-12-08T03:33:51.581Z,99861.59
2022-12-08T03:36:19.010Z,99864.59
2022-12-08T03:38:47.053Z,99870.28
2022-12-08T03:41:13.637Z,99862.94
2022-12-08T03:43:40.254Z,99879.13
2022-12-08T03:46:07.132Z,99860.53
2022-12-08T03:48:33.694Z,99866.25
2022-12-08T03:51:00.239Z,99870.13
2022-12-08T03:53:26.931Z,99884.00
2022-12-08T03:55:54.186Z,99879.59
2022-12-08T03:58:20.747Z,99861.66
2022-12-08T04:00:47.333Z,99844.75
2022-12-08T04:03:14.918Z,99864.19
2022-12-08T04:05:41.466Z,99855.44
2022-12-08T04:08:08.189Z,99847.66
2022-12-08T04:10:34.961Z,99835.25
2022-12-08T04:13:01.436Z,99838.41
2022-12-08T04:15:28.051Z,99858.41
2022-12-08T04:17:54.638Z,99852.28
2022-12-08T04:20:21.217Z,99853.81
2022-12-08T04:22:47.730Z,99832.66
2022-12-08T04:25:14.267Z,99822.19
2022-12-08T04:27:40.750Z,99822.66
2022-12-08T04:30:08.244Z,99833.59
2022-12-08T04:32:34.811Z,99820.41
2022-12-08T04:35:01.253Z,99830.31
2022-12-08T04:37:29.544Z,99819.44
2022-12-08T04:39:56.124Z,99843.59
2022-12-08T04:42:22.665Z,99837.19
2022-12-08T04:44:49.175Z,99854.97
2022-12-08T04:47:15.745Z,99811.44
2022-12-08T04:49:42.324Z,99854.13
2022-12-08T04:52:08.888Z,99863.72
2022-12-08T04:54:35.524Z,99848.28
2022-12-08T04:57:02.099Z,99861.44
2022-12-08T04:59:28.764Z,99847.66
2022-12-08T05:01:55.410Z,99850.22
2022-12-08T05:04:22.051Z,99866.13
2022-12-08T05:06:48.760Z,99870.25
2022-12-08T05:09:15.430Z,99853.72
2022-12-08T05:11:46.981Z,99852.06
2022-12-08T05:14:18.052Z,99841.59
2022-12-08T05:16:45.598Z,99851.78
2022-12-08T05:19:12.936Z,99837.88
2022-12-08T05:21:40.079Z,99847.66
2022-12-08T05:24:06.735Z,99865.56
2022-12-08T05:26:33.261Z,99862.47
2022-12-08T05:29:00.080Z,99836.97
2022-12-08T05:31:27.116Z,99859.78
2022-12-08T05:33:55.698Z,99859.78
2022-12-08T05:36:24.060Z,99844.44
2022-12-08T05:38:50.582Z,99858.41
2022-12-08T05:41:20.273Z,99852.34
2022-12-08T05:43:47.572Z,99828.91
2022-12-08T05:46:14.923Z,99866.13
2022-12-08T05:48:41.547Z,99845.22
2022-12-08T05:51:17.371Z,99849.84
2022-12-08T05:53:43.964Z,99840.69
2022-12-08T05:56:12.226Z,99854.75
2022-12-08T05:58:38.944Z,99848.19
2022-12-08T06:01:05.682Z,99860.44
2022-12-08T06:03:32.510Z,99846.59
2022-12-08T06:05:59.130Z,99867.63
2022-12-08T06:08:25.866Z,99862.66
2022-12-08T06:10:52.464Z,99859.84
2022-12-08T06:13:19.225Z,99845.16
2022-12-08T06:15:45.709Z,99857.63
2022-12-08T06:18:12.192Z,99841.59
2022-12-08T06:20:38.730Z,99817.00
2022-12-08T06:23:05.204Z,99820.16
2022-12-08T06:25:31.722Z,99828.09
2022-12-08T06:27:58.343Z,99820.75
2022-12-08T06:30:24.852Z,99819.53
2022-12-08T06:32:51.322Z,99823.50
2022-12-08T06:35:18.065Z,99825.88
2022-12-08T06:37:44.561Z,99832.28
2022-12-08T06:40:11.535Z,99831.38
2022-12-08T06:42:38.147Z,99830.50
2022-12-08T06:45:05.072Z,99831.25
2022-12-08T06:47:31.632Z,99826.28
2022-12-08T06:49:58.571Z,99825.69
2022-12-08T06:52:25.010Z,99832.56
2022-12-08T06:54:51.655Z,99831.53
2022-12-08T06:57:18.238Z,99829.44
2022-12-08T06:59:44.824Z,99833.31
2022-12-08T07:02:11.383Z,99832.06
2022-12-08T07:04:37.930Z,99836.16
2022-12-08T07:07:04.476Z,99834.03
2022-12-08T07:09:31.255Z,99840.53
2022-12-08T07:11:57.888Z,99838.38
2022-12-08T07:14:27.504Z,99842.22
2022-12-08T07:16:54.025Z,99849.97
2022-12-08T07:19:20.692Z,99846.41
2022-12-08T07:21:47.169Z,99849.66
2022-12-08T07:24:14.002Z,99846.06
2022-12-08T07:26:41.153Z,99853.06
2022-12-08T07:29:07.629Z,99855.16
2022-12-08T07:31:34.158Z,99845.16
2022-12-08T07:34:00.732Z,99854.59
2022-12-08T07:36:27.510Z,99849.34
2022-12-08T07:38:54.241Z,99861.50
2022-12-08T07:41:24.585Z,99848.59
2022-12-08T07:43:51.651Z,99852.47
2022-12-08T07:46:20.507Z,99850.16
2022-12-08T07:48:47.575Z,99869.75
2022-12-08T07:51:15.671Z,99890.00
2022-12-08T07:53:47.292Z,99852.59
2022-12-08T07:56:18.518Z,99851.00
2022-12-08T07:58:45.235Z,99847.69
2022-12-08T08:01:29.718Z,99833.63
2022-12-08T08:03:58.526Z,99840.22
2022-12-08T08:06:25.127Z,99838.22
2022-12-08T08:08:51.787Z,99846.78
2022-12-08T08:11:21.386Z,99847.31
2022-12-08T08:13:49.599Z,99840.88
2022-12-08T08:16:16.876Z,99838.56
2022-12-08T08:18:43.565Z,99852.78
2022-12-08T08:21:43.074Z,99831.63
2022-12-08T08:23:56.826Z,99823.31
2022-12-08T08:26:23.475Z,99831.69
2022-12-08T08:28:49.982Z,99831.94
2022-12-08T08:31:16.670Z,99842.28
2022-12-08T08:33:43.271Z,99829.50
2022-12-08T08:36:10.231Z,99836.28
2022-12-08T08:38:37.875Z,99836.94
2022-12-08T08:41:08.383Z,99831.16
2022-12-08T08:43:38.424Z,99830.31
2022-12-08T08:46:06.630Z,99822.06
2022-12-08T08:48:33.712Z,99830.47
2022-12-08T08:51:08.204Z,99821.69
2022-12-08T08:53:35.210Z,99818.88
2022-12-08T08:56:03.053Z,99830.50
2022-12-08T08:58:29.882Z,99809.06
2022-12-08T09:00:56.531Z,99818.72
2022-12-08T09:03:23.046Z,99813.84
2022-12-08T09:05:50.781Z,99814.16
2022-12-08T09:08:17.583Z,99815.91
2022-12-08T09:10:44.442Z,99823.72
2022-12-08T09:13:11.133Z,99821.75
2022-12-08T09:15:37.819Z,99813.84
2022-12-08T09:18:04.398Z,99815.72
2022-12-08T09:20:31.005Z,99822.56
2022-12-08T09:22:57.486Z,99811.84
2022-12-08T09:25:23.984Z,99819.03
2022-12-08T09:27:50.617Z,99804.91
2022-12-08T09:30:17.335Z,99799.47
2022-12-08T09:32:43.892Z,99806.56
2022-12-08T09:35:10.586Z,99805.50
2022-12-08T09:37:37.085Z,99810.38
2022-12-08T09:40:04.210Z,99810.88
2022-12-08T09:42:50.662Z,99807.88
2022-12-08T09:45:18.393Z,99797.81
2022-12-08T09:48:04.847Z,99811.03
2022-12-08T09:50:50.413Z,99805.81
2022-12-08T09:53:22.848Z,99813.16
2022-12-08T09:55:56.351Z,99820.03
2022-12-08T09:58:45.755Z,99815.88
2022-12-08T10:01:12.372Z,99817.72
2022-12-08T10:03:40.427Z,99817.41
2022-12-08T10:06:30.431Z,99810.00
2022-12-08T10:09:08.794Z,99809.31
2022-12-08T10:12:00.527Z,99809.72
2022-12-08T10:14:31.910Z,99802.84
2022-12-08T10:17:24.512Z,99810.03
2022-12-08T10:20:10.887Z,99792.97
2022-12-08T10:22:42.845Z,99806.75
2022-12-08T10:25:33.130Z,99807.88
2022-12-08T10:27:59.685Z,99804.50
2022-12-08T10:30:26.263Z,99798.00
2022-12-08T10:32:54.671Z,99805.09
2022-12-08T10:35:23.244Z,99801.22
2022-12-08T10:38:01.186Z,99798.66
2022-12-08T10:40:36.087Z,99780.38
2022-12-08T10:43:04.559Z,99801.13
2022-12-08T10:45:38.205Z,99805.31
2022-12-08T10:48:19.471Z,99804.44
2022-12-08T10:50:53.305Z,99801.13
2022-12-08T10:53:23.269Z,99809.88
2022-12-08T10:55:51.123Z,99803.53
2022-12-08T10:58:31.585Z,99808.72
2022-12-08T11:01:03.038Z,99809.28
2022-12-08T11:03:34.394Z,99806.47
2022-12-08T11:06:11.087Z,99811.25
2022-12-08T11:08:47.394Z,99814.94
2022-12-08T11:11:14.109Z,99816.13
2022-12-08T11:13:41.969Z,99810.94
2022-12-08T11:16:11.730Z,99809.88
2022-12-08T11:18:54.810Z,99804.59
2022-12-08T11:21:34.344Z,99809.03
2022-12-08T11:24:17.863Z,99809.19
2022-12-08T11:26:52.089Z,99814.16
2022-12-08T11:29:18.752Z,99826.19
2022-12-08T11:32:11.610Z,99814.34
2022-12-08T11:34:46.245Z,99810.38
2022-12-08T11:37:39.658Z,99814.75
2022-12-08T11:40:14.866Z,99820.53
2022-12-08T11:42:54.470Z,99812.25
2022-12-08T11:45:27.480Z,99848.88
2022-12-08T11:48:05.832Z,99810.16
2022-12-08T11:50:38.879Z,99815.06
2022-12-08T11:53:08.219Z,99811.59
2022-12-08T11:55:49.635Z,99810.53
2022-12-08T11:58:22.590Z,99813.81
2022-12-08T12:00:49.893Z,99811.69
2022-12-08T12:03:46.400Z,99829.56
2022-12-08T12:06:55.877Z,99816.69
2022-12-08T12:09:36.570Z,99819.63
2022-12-08T12:12:16.191Z,99824.06
2022-12-08T12:15:03.961Z,99819.63
2022-12-08T12:17:52.982Z,99821.56
2022-12-08T12:20:38.247Z,99810.94
2022-12-08T12:23:14.474Z,99810.38
2022-12-08T12:25:50.968Z,99811.31
2022-12-08T12:28:18.104Z,99808.00
2022-12-08T12:31:08.406Z,99815.28
2022-12-08T12:33:36.118Z,99827.91
2022-12-08T12:36:06.569Z,99821.44
2022-12-08T12:38:39.038Z,99824.38
2022-12-08T12:41:07.860Z,99832.38
2022-12-08T12:43:37.032Z,99837.63
2022-12-08T12:46:25.307Z,99832.69
2022-12-08T12:48:52.277Z,99825.34
2022-12-08T12:51:40.291Z,99814.03
2022-12-08T12:54:33.025Z,99811.69
2022-12-08T12:57:05.702Z,99815.69
2022-12-08T12:59:40.098Z,99828.81
2022-12-08T13:02:38.415Z,99818.84
2022-12-08T13:05:17.110Z,99820.44
2022-12-08T13:07:51.355Z,99815.38
2022-12-08T13:10:34.579Z,99822.91
2022-12-08T13:13:10.487Z,99822.75
2022-12-08T13:15:48.252Z,99828.06
2022-12-08T13:18:35.329Z,99814.59
2022-12-08T13:21:10.940Z,99815.34
2022-12-08T13:23:37.454Z,99818.97
2022-12-08T13:26:12.693Z,99830.25
2022-12-08T13:29:01.015Z,99804.19
2022-12-08T13:31:53.117Z,99824.41
2022-12-08T13:34:29.895Z,99831.16
2022-12-08T13:37:16.183Z,99831.91
2022-12-08T13:39:49.818Z,99837.72
2022-12-08T13:43:04.991Z,99832.47
2022-12-08T13:46:18.360Z,99834.16
2022-12-08T13:57:23.699Z,99828.34
2022-12-08T13:59:50.244Z,99829.25
2022-12-08T14:02:27.483Z,99833.72
2022-12-08T14:07:43.664Z,99843.59
2022-12-08T14:10:18.763Z,99851.50
2022-12-08T14:12:48.251Z,99844.44
2022-12-08T14:15:15.775Z,99837.66
2022-12-08T14:17:51.528Z,99839.13
2022-12-08T14:20:28.259Z,99839.13
2022-12-08T14:22:55.241Z,99836.00
2022-12-08T14:25:24.183Z,99836.75
2022-12-08T14:27:58.891Z,99849.84
2022-12-08T14:30:30.046Z,99833.47
2022-12-08T14:33:02.071Z,99845.91
2022-12-08T14:35:34.146Z,99850.72
2022-12-08T14:38:05.550Z,99847.63
2022-12-08T14:40:34.066Z,99846.72
2022-12-08T14:43:09.604Z,99857.97
2022-12-08T14:45:44.838Z,99863.19
2022-12-08T14:48:32.977Z,99861.63
2022-12-08T14:51:20.557Z,99866.16
2022-12-08T14:54:08.160Z,99876.78
2022-12-08T14:56:40.542Z,99868.94
2022-12-08T14:59:19.640Z,99867.75
2022-12-08T15:01:48.738Z,99856.91
2022-12-08T15:04:25.370Z,99859.66
2022-12-08T15:06:56.374Z,99867.34
2022-12-08T15:10:29.406Z,99868.53
2022-12-08T15:13:20.016Z,99879.63
2022-12-08T15:15:52.461Z,99866.53
2022-12-08T15:18:35.310Z,99871.81
2022-12-08T15:21:04.892Z,99867.69
2022-12-08T15:23:51.640Z,99864.59
2022-12-08T15:26:24.334Z,99872.28
2022-12-08T15:28:52.179Z,99879.38
2022-12-08T15:31:19.036Z,99880.63
2022-12-08T15:33:45.963Z,99877.00
2022-12-08T15:36:12.691Z,99883.19
2022-12-08T15:38:39.428Z,99883.34
2022-12-08T15:41:09.051Z,99882.75
2022-12-08T15:43:39.955Z,99888.91
2022-12-08T15:46:06.566Z,99883.13
2022-12-08T15:48:33.760Z,99881.78
2022-12-08T15:51:00.273Z,99877.72
2022-12-08T15:53:26.887Z,99881.78
2022-12-08T15:56:25.553Z,99877.38
2022-12-08T15:58:57.032Z,99884.97
2022-12-08T16:01:24.701Z,99887.44
2022-12-08T16:09:32.413Z,99880.84
2022-12-08T16:12:08.282Z,99877.00
2022-12-08T16:17:24.665Z,99880.13
2022-12-08T16:19:51.369Z,99874.44
2022-12-08T16:25:18.791Z,99886.34
2022-12-08T16:28:01.435Z,99881.13
2022-12-08T16:30:30.822Z,99878.38
2022-12-08T16:32:57.350Z,99880.13
2022-12-08T16:35:23.919Z,99868.13
2022-12-08T16:37:52.753Z,99873.09
2022-12-08T16:40:19.315Z,99866.66
2022-12-08T16:42:45.836Z,99870.59
2022-12-08T16:45:18.558Z,99865.19
2022-12-08T16:47:48.540Z,99870.59
2022-12-08T16:50:20.502Z,99882.22
2022-12-08T16:52:47.924Z,99882.22
2022-12-08T16:55:19.237Z,99881.66
2022-12-08T16:57:46.736Z,99890.38
2022-12-08T17:00:19.902Z,99882.66
2022-12-08T17:02:47.013Z,99886.88
2022-12-08T17:05:15.946Z,99886.88
2022-12-08T17:07:44.985Z,99877.63
2022-12-08T17:10:14.724Z,99879.47
2022-12-08T17:12:41.855Z,99887.88
2022-12-08T17:15:11.529Z,99883.56
2022-12-08T17:17:38.218Z,99892.00
2022-12-08T17:20:08.267Z,99890.00
2022-12-08T17:22:35.546Z,99898.31
2022-12-08T17:25:02.892Z,99895.31
2022-12-08T17:27:29.715Z,99896.78
2022-12-08T17:29:56.303Z,99890.00
2022-12-08T17:32:23.144Z,99886.53
2022-12-08T17:34:49.929Z,99884.69
2022-12-08T17:37:18.738Z,99869.75
2022-12-08T17:39:45.712Z,99880.84
2022-12-08T17:42:12.338Z,99877.53
2022-12-08T17:44:38.956Z,99864.84
2022-12-08T17:47:05.594Z,99875.88
2022-12-08T17:49:33.310Z,99879.84
2022-12-08T17:52:03.952Z,99865.63
2022-12-08T17:54:30.937Z,99868.47
2022-12-08T17:56:57.968Z,99866.69
2022-12-08T17:59:25.670Z,99866.38
2022-12-08T18:01:53.370Z,99869.09
2022-12-08T18:04:20.219Z,99861.50
2022-12-08T18:06:46.756Z,99870.22
2022-12-08T18:09:15.552Z,99866.56
2022-12-08T18:11:43.360Z,99873.88
2022-12-08T18:14:11.173Z,99881.66
2022-12-08T18:16:39.876Z,99888.91
2022-12-08T18:19:07.786Z,99895.41
2022-12-08T18:21:34.998Z,99887.25
2022-12-08T18:24:01.758Z,99898.03
2022-12-08T18:26:28.603Z,99891.69
2022-12-08T18:28:55.140Z,99890.44
2022-12-08T18:31:22.819Z,99891.56
2022-12-08T18:33:52.202Z,99892.84
2022-12-08T18:36:21.742Z,99893.59
2022-12-08T18:38:48.769Z,99899.28
2022-12-08T18:41:18.622Z,99934.63
2022-12-08T18:43:45.896Z,99895.28
2022-12-08T18:46:13.813Z,99892.09
2022-12-08T18:48:43.803Z,99890.81
2022-12-08T18:51:11.564Z,99889.91
2022-12-08T18:53:38.551Z,99890.44
2022-12-08T18:56:06.044Z,99889.34
2022-12-08T18:58:32.658Z,99889.34
2022-12-08T19:00:59.647Z,99896.47
2022-12-08T19:03:26.356Z,99896.16
2022-12-08T19:06:05.538Z,99905.47
2022-12-08T19:08:32.529Z,99903.53
2022-12-08T19:11:00.020Z,99883.22
2022-12-08T19:13:26.617Z,99901.38
2022-12-08T19:15:53.612Z,99886.28
2022-12-08T19:18:20.253Z,99876.34
2022-12-08T19:20:46.980Z,99883.72
2022-12-08T19:23:14.914Z,99882.69
2022-12-08T19:25:41.490Z,99881.63
2022-12-08T19:28:08.108Z,99883.78
2022-12-08T19:30:34.667Z,99881.66
2022-12-08T19:33:01.152Z,99886.63
2022-12-08T19:35:27.685Z,99893.97
2022-12-08T19:37:54.355Z,99891.75
2022-12-08T19:40:20.889Z,99898.09
2022-12-08T19:42:47.378Z,99890.50
2022-12-08T19:45:20.094Z,99890.91
2022-12-08T19:47:47.128Z,99893.59
2022-12-08T19:50:15.530Z,99891.41
2022-12-08T19:52:42.557Z,99902.34
2022-12-08T19:55:09.504Z,99902.00
2022-12-08T19:57:36.072Z,99898.09
2022-12-08T20:00:04.226Z,99902.03
2022-12-08T20:02:30.967Z,99903.59
2022-12-08T20:04:57.555Z,99904.19
2022-12-08T20:07:24.109Z,99904.38
2022-12-08T20:09:51.045Z,99914.50
2022-12-08T20:12:17.614Z,99906.81
2022-12-08T20:14:46.257Z,99915.31
2022-12-08T20:17:13.025Z,99910.63
2022-12-08T20:19:39.607Z,99910.75
2022-12-08T20:22:06.216Z,99903.47
2022-12-08T20:24:32.765Z,99899.00
2022-12-08T20:26:59.347Z,99908.81
2022-12-08T20:29:25.960Z,99902.03
2022-12-08T20:31:52.613Z,99896.09
2022-12-08T20:34:19.637Z,99909.03
2022-12-08T20:36:46.585Z,99903.09
2022-12-08T20:39:15.984Z,99908.81
2022-12-08T20:41:44.389Z,99909.78
2022-12-08T20:44:11.924Z,99906.91
2022-12-08T20:46:39.004Z,99906.03
2022-12-08T20:49:05.817Z,99914.59
2022-12-08T20:51:33.343Z,99911.06
2022-12-08T20:54:00.235Z,99916.94
2022-12-08T20:56:27.459Z,99917.13
2022-12-08T20:58:55.383Z,99922.44
2022-12-08T21:01:23.920Z,99925.06
2022-12-08T21:03:51.329Z,99939.78
2022-12-08T21:06:22.232Z,99937.97
2022-12-08T21:08:51.209Z,99932.19
2022-12-08T21:11:18.186Z,99931.25
2022-12-08T21:13:44.926Z,99927.53
2022-12-08T21:16:14.191Z,99943.72
2022-12-08T21:18:41.600Z,99928.44
2022-12-08T21:21:11.273Z,99924.50
2022-12-08T21:23:38.402Z,99920.78
2022-12-08T21:26:14.437Z,99919.56
2022-12-08T21:28:41.317Z,99920.09
2022-12-08T21:31:10.349Z,99924.22
2022-12-08T21:33:38.108Z,99920.09
2022-12-08T21:36:06.893Z,99925.56
2022-12-08T21:38:33.670Z,99931.41
2022-12-08T21:41:05.361Z,99930.06
2022-12-08T21:43:31.901Z,99933.88
2022-12-08T21:45:58.686Z,99935.44
2022-12-08T21:48:25.972Z,99926.19
2022-12-08T21:50:53.397Z,99928.88
2022-12-08T21:53:21.336Z,99931.91
2022-12-08T21:55:48.129Z,99928.66
2022-12-08T21:58:15.043Z,99929.25
2022-12-08T22:00:41.593Z,99925.25
2022-12-08T22:03:13.999Z,99922.38
2022-12-08T22:05:41.744Z,99912.41
2022-12-08T22:08:09.010Z,99913.97
2022-12-08T22:10:36.912Z,99912.63
2022-12-08T22:13:03.945Z,99910.03
2022-12-08T22:15:30.717Z,99919.31
2022-12-08T22:17:57.431Z,99921.88
2022-12-08T22:20:24.122Z,99916.44
2022-12-08T22:22:50.760Z,99918.56
2022-12-08T22:25:17.679Z,99920.72
2022-12-08T22:27:44.401Z,99916.13
2022-12-08T22:30:12.065Z,99922.66
2022-12-08T22:32:39.228Z,99925.13
2022-12-08T22:35:06.127Z,99914.06
2022-12-08T22:37:32.728Z,99919.50
2022-12-08T22:42:26.392Z,99918.25
2022-12-08T22:44:53.044Z,99912.19
2022-12-08T22:47:20.697Z,99912.81
2022-12-08T22:49:47.355Z,99909.13
2022-12-08T22:52:14.084Z,99906.66
2022-12-08T22:54:40.920Z,99911.78
2022-12-08T22:57:07.424Z,99906.31
2022-12-08T22:59:33.886Z,99905.41
2022-12-08T23:02:00.456Z,99905.63
2022-12-08T23:04:27.418Z,99913.03
2022-12-08T23:06:54.021Z,99905.31
2022-12-08T23:09:21.616Z,99902.84
2022-12-08T23:11:48.495Z,99910.13
2022-12-08T23:14:15.209Z,99905.19
2022-12-08T23:16:42.035Z,99906.66
2022-12-08T23:19:08.904Z,99914.06
2022-12-08T23:21:35.564Z,99908.91
2022-12-08T23:24:02.224Z,99910.06
2022-12-08T23:26:31.245Z,99908.69
2022-12-08T23:28:58.703Z,99918.16
2022-12-08T23:31:26.251Z,99922.91
2022-12-08T23:33:53.518Z,99928.44
2022-12-08T23:36:21.504Z,99932.66
2022-12-08T23:38:48.494Z,99935.59
2022-12-08T23:41:16.239Z,99935.00
2022-12-08T23:43:47.951Z,99934.59
2022-12-08T23:46:16.261Z,99939.13
2022-12-08T23:48:43.404Z,99938.00
2022-12-08T23:51:10.528Z,99942.91
2022-12-08T23:53:37.341Z,99944.25
2022-12-08T23:56:07.699Z,99939.34
2022-12-08T23:58:35.575Z,99937.19
